METAR Data
IDs: Format: Raw Decoded Include TAF

Data at: 0218 UTC 16 Jan 2019

KOZA 160155Z AUTO 10SM OVC007 07/06 A3025 RMK AO2
KOZA 160135Z AUTO 20011KT 10SM OVC007 07/06 A3024 RMK AO2
KOZA 160115Z AUTO 10SM OVC007 07/06 A3024 RMK AO2
KOZA 160055Z AUTO 19009G17KT 10SM OVC009 07/06 A3024 RMK AO2
KOZA 160035Z AUTO 10SM OVC011 08/06 A3023 RMK AO2
KOZA 160015Z AUTO 10SM BKN011 OVC080 08/06 A3023 RMK AO2
KOZA 152355Z AUTO 10SM SCT011 OVC080 08/06 A3023 RMK AO2
KOZA 152335Z AUTO 10SM SCT011 OVC080 08/06 A3023 RMK AO2
KOZA 152315Z AUTO 19007KT 10SM SCT011 BKN080 08/06 A3022 RMK AO2
KOZA 152255Z AUTO 19008KT 10SM SCT011 BKN080 08/06 A3023 RMK AO2
KOZA 152235Z AUTO 10SM SCT011 BKN080 08/06 A3022 RMK AO2
KOZA 152215Z AUTO 10SM OVC011 08/06 A3023 RMK AO2
KOZA 152155Z AUTO 10SM OVC009 08/06 A3023 RMK AO2
KOZA 152135Z AUTO 18007KT 10SM OVC009 08/06 A3024 RMK AO2
KOZA 152115Z AUTO 10SM OVC007 07/06 A3024 RMK AO2
KOZA 152055Z AUTO 7SM OVC007 07/05 A3024 RMK AO2
KOZA 152035Z AUTO 7SM OVC007 07/05 A3024 RMK AO2
KOZA 152015Z AUTO 7SM OVC005 07/05 A3025 RMK AO2
KOZA 151955Z AUTO 20008KT 7SM OVC005 06/05 A3026 RMK AO2
KOZA 151935Z AUTO 19008KT 5SM BR OVC005 06/05 A3026 RMK AO2
KOZA 151915Z AUTO 21007KT 5SM BR OVC005 06/05 A3028 RMK AO2
KOZA 151855Z AUTO 19007KT 5SM BR OVC005 06/05 A3030 RMK AO2
KOZA 151835Z AUTO 22007KT 5SM BR OVC005 06/05 A3031 RMK AO2
KOZA 151815Z AUTO 20008KT 4SM BR OVC005 06/05 A3032 RMK AO2
KOZA 151755Z AUTO 19008KT 5SM BR OVC005 06/05 A3034 RMK AO2
KOZA 151735Z AUTO 22004KT 4SM -DZ OVC005 06/05 A3035 RMK AO2
KOZA 151715Z AUTO 21007KT 3SM BR OVC005 06/05 A3035 RMK AO2
KOZA 151655Z AUTO 19008KT 4SM BR OVC005 06/05 A3033 RMK AO2
KOZA 151635Z AUTO 17008KT 3SM BR OVC005 05/05 A3033 RMK AO2
KOZA 151615Z AUTO 17009KT 4SM BR OVC005 05/05 A3033 RMK AO2
KOZA 151555Z AUTO 17007KT 3SM BR OVC005 05/05 A3033 RMK AO2
KOZA 151535Z AUTO 16006KT 3SM BR OVC005 05/05 A3033 RMK AO2
KOZA 151515Z AUTO 18007KT 3SM BR OVC005 05/05 A3032 RMK AO2
KOZA 151455Z AUTO 16006KT 4SM BR OVC005 05/05 A3032 RMK AO2
KOZA 151435Z AUTO 18008KT 4SM BR OVC005 05/05 A3032 RMK AO2
KOZA 151415Z AUTO 19006KT 4SM BR OVC005 05/05 A3032 RMK AO2
KOZA 151355Z AUTO 17005KT 3SM BR OVC005 05/05 A3031 RMK AO2
KOZA 151335Z AUTO 4SM BR OVC005 06/05 A3031 RMK AO2
KOZA 151315Z AUTO 20004KT 4SM BR OVC003 05/05 A3031 RMK AO2
KOZA 151255Z AUTO 3SM BR OVC003 06/05 A3030 RMK AO2
KOZA 151235Z AUTO 20004KT 2 1/2SM BR OVC005 05/05 A3030 RMK AO2
KOZA 151215Z AUTO 20007KT 3SM BR OVC005 06/05 A3030 RMK AO2
KOZA 151155Z AUTO 19005KT 5SM BR OVC005 06/05 A3030 RMK AO2
KOZA 151135Z AUTO 17005KT 5SM BR OVC007 06/05 A3029 RMK AO2
KOZA 151115Z AUTO 17005KT 7SM OVC009 06/05 A3028 RMK AO2
KOZA 151055Z AUTO 16004KT 10SM OVC009 06/05 A3028 RMK AO2
KOZA 151035Z AUTO 17004KT 10SM OVC009 06/04 A3029 RMK AO2
KOZA 151015Z AUTO 10SM OVC011 06/04 A3030 RMK AO2
KOZA 150955Z AUTO 10SM OVC011 06/04 A3031 RMK AO2
KOZA 150935Z AUTO 10SM OVC011 06/04 A3031 RMK AO2
KOZA 150915Z AUTO 19005KT 10SM OVC013 06/04 A3031 RMK AO2
KOZA 150855Z AUTO 10SM OVC013 06/03 A3031 RMK AO2
KOZA 150835Z AUTO 10SM OVC013 06/03 A3030 RMK AO2
KOZA 150815Z AUTO 10SM OVC013 06/03 A3031 RMK AO2
KOZA 150755Z AUTO 10SM OVC015 06/03 A3031 RMK AO2
KOZA 150735Z AUTO 20007KT 10SM OVC015 07/03 A3031 RMK AO2
KOZA 150715Z AUTO 10SM OVC015 07/03 A3031 RMK AO2
KOZA 150655Z AUTO 17005KT 10SM BKN017 OVC023 07/03 A3031 RMK AO2
KOZA 150635Z AUTO 10SM OVC021 07/03 A3031 RMK AO2
KOZA 150615Z AUTO 10SM OVC021 07/03 A3033 RMK AO2
KOZA 150555Z AUTO 10SM OVC021 07/03 A3033 RMK AO2
KOZA 150535Z AUTO 16005KT 10SM OVC021 07/03 A3034 RMK AO2
KOZA 150515Z AUTO 16005KT 10SM OVC021 07/03 A3034 RMK AO2
KOZA 150455Z AUTO 15005KT 10SM OVC021 07/03 A3034 RMK AO2
KOZA 150435Z AUTO 14004KT 10SM OVC021 07/03 A3034 RMK AO2
KOZA 150415Z AUTO 10SM OVC021 07/03 A3033 RMK AO2
KOZA 150355Z AUTO 10SM OVC021 07/03 A3033 RMK AO2
KOZA 150335Z AUTO 11003KT 10SM OVC021 07/03 A3033 RMK AO2
KOZA 150315Z AUTO 10SM OVC021 07/03 A3034 RMK AO2
KOZA 150255Z AUTO 10003KT 10SM OVC021 07/03 A3034 RMK AO2
KOZA 150235Z AUTO 00000KT 10SM OVC021 07/03 A3035 RMK AO2
KOZA 150215Z AUTO 10SM OVC021 07/03 A3035 RMK AO2
KOZA 150155Z AUTO 10SM OVC021 07/03 A3036 RMK AO2
KOZA 150135Z AUTO 10SM OVC023 07/03 A3036 RMK AO2
KOZA 150115Z AUTO 10SM OVC023 07/03 A3035 RMK AO2
KOZA 150055Z AUTO 10SM OVC023 07/03 A3035 RMK AO2
KOZA 150035Z AUTO 10SM OVC023 07/03 A3035 RMK AO2
KOZA 150015Z AUTO 15004KT 10SM OVC025 07/02 A3034 RMK AO2
KOZA 142355Z AUTO 14004KT 10SM OVC025 07/02 A3033 RMK AO2
KOZA 142335Z AUTO 10SM OVC025 07/02 A3033 RMK AO2
KOZA 142315Z AUTO 10SM OVC025 07/02 A3032 RMK AO2
KOZA 142255Z AUTO 14006KT 10SM OVC027 07/02 A3033 RMK AO2
KOZA 142235Z AUTO 14005KT 10SM OVC027 07/02 A3033 RMK AO2
KOZA 142215Z AUTO 16003KT 10SM OVC027 07/02 A3033 RMK AO2
KOZA 142155Z AUTO 17003KT 10SM OVC027 07/02 A3034 RMK AO2
KOZA 142135Z AUTO 10SM OVC025 07/02 A3033 RMK AO2
KOZA 142115Z AUTO 10SM SCT019 OVC025 07/02 A3034 RMK AO2
KOZA 142055Z AUTO 19004KT 10SM SCT019 OVC025 07/02 A3035 RMK AO2
KOZA 142035Z AUTO 17004KT 10SM SCT019 OVC025 07/02 A3036 RMK AO2
KOZA 142015Z AUTO 10SM OVC025 07/02 A3037 RMK AO2
KOZA 141955Z AUTO 10SM OVC025 07/02 A3039 RMK AO2
KOZA 141935Z AUTO 16003KT 10SM OVC023 07/02 A3039 RMK AO2
KOZA 141915Z AUTO 10SM OVC025 07/02 A3039 RMK AO2
KOZA 141855Z AUTO 10SM OVC025 07/02 A3040 RMK AO2
KOZA 141835Z AUTO 10SM OVC025 06/02 A3041 RMK AO2
KOZA 141815Z AUTO 10SM OVC025 06/01 A3042 RMK AO2
KOZA 141755Z AUTO 00000KT 10SM OVC025 06/01 A3044 RMK AO2
KOZA 141735Z AUTO 00000KT 10SM OVC027 05/01 A3045 RMK AO2
KOZA 141715Z AUTO 00000KT 10SM OVC027 05/01 A3046 RMK AO2
KOZA 141655Z AUTO 10SM OVC029 05/01 A3046 RMK AO2
KOZA 141635Z AUTO 09003KT 10SM OVC027 04/01 A3046 RMK AO2
KOZA 141615Z AUTO 06003KT 10SM OVC027 03/01 A3046 RMK AO2
KOZA 141555Z AUTO 06004KT 10SM OVC027 03/00 A3045 RMK AO2
KOZA 141535Z AUTO 08003KT 10SM OVC027 03/00 A3045 RMK AO2
KOZA 141515Z AUTO 10SM OVC029 03/01 A3045 RMK AO2
KOZA 141455Z AUTO 08005KT 10SM OVC029 02/01 A3043 RMK AO2
KOZA 141435Z AUTO 06005KT 10SM OVC029 02/01 A3042 RMK AO2